sensor_id;sensor_type;location;lat;lon;timestamp;P1;durP1;ratioP1;P2;durP2;ratioP2
75649;SDS011;64245;51.282;22.494;2023-01-09T00:01:44;36.63;;;14.55;;
75649;SDS011;64245;51.282;22.494;2023-01-09T00:04:12;33.60;;;14.15;;
75649;SDS011;64245;51.282;22.494;2023-01-09T00:06:38;31.27;;;12.77;;
75649;SDS011;64245;51.282;22.494;2023-01-09T00:09:04;34.90;;;13.70;;
75649;SDS011;64245;51.282;22.494;2023-01-09T00:11:30;37.53;;;13.73;;
75649;SDS011;64245;51.282;22.494;2023-01-09T00:13:56;33.33;;;14.65;;
75649;SDS011;64245;51.282;22.494;2023-01-09T00:16:22;32.33;;;14.00;;
75649;SDS011;64245;51.282;22.494;2023-01-09T00:18:48;32.08;;;14.30;;
75649;SDS011;64245;51.282;22.494;2023-01-09T00:21:13;30.80;;;13.60;;
75649;SDS011;64245;51.282;22.494;2023-01-09T00:23:40;31.83;;;13.73;;
75649;SDS011;64245;51.282;22.494;2023-01-09T00:26:06;32.72;;;13.73;;
75649;SDS011;64245;51.282;22.494;2023-01-09T00:28:34;33.63;;;13.38;;
75649;SDS011;64245;51.282;22.494;2023-01-09T00:31:01;28.73;;;12.60;;
75649;SDS011;64245;51.282;22.494;2023-01-09T00:33:28;31.38;;;11.65;;
75649;SDS011;64245;51.282;22.494;2023-01-09T00:35:56;26.30;;;9.98;;
75649;SDS011;64245;51.282;22.494;2023-01-09T00:38:22;32.25;;;13.38;;
75649;SDS011;64245;51.282;22.494;2023-01-09T00:40:48;29.08;;;11.38;;
75649;SDS011;64245;51.282;22.494;2023-01-09T00:43:13;32.85;;;13.32;;
75649;SDS011;64245;51.282;22.494;2023-01-09T00:45:39;29.48;;;13.93;;
75649;SDS011;64245;51.282;22.494;2023-01-09T00:48:06;25.63;;;12.52;;
75649;SDS011;64245;51.282;22.494;2023-01-09T00:50:36;26.20;;;12.05;;
75649;SDS011;64245;51.282;22.494;2023-01-09T00:53:05;24.88;;;11.32;;
75649;SDS011;64245;51.282;22.494;2023-01-09T00:55:36;25.33;;;10.63;;
75649;SDS011;64245;51.282;22.494;2023-01-09T00:58:03;27.40;;;11.75;;
75649;SDS011;64245;51.282;22.494;2023-01-09T01:00:28;27.42;;;11.65;;
75649;SDS011;64245;51.282;22.494;2023-01-09T01:02:54;25.80;;;11.27;;
75649;SDS011;64245;51.282;22.494;2023-01-09T01:05:20;28.08;;;12.77;;
75649;SDS011;64245;51.282;22.494;2023-01-09T01:08:09;29.35;;;11.35;;
75649;SDS011;64245;51.282;22.494;2023-01-09T01:10:38;31.95;;;13.05;;
75649;SDS011;64245;51.282;22.494;2023-01-09T01:13:05;29.85;;;11.52;;
75649;SDS011;64245;51.282;22.494;2023-01-09T01:15:31;29.75;;;12.95;;
75649;SDS011;64245;51.282;22.494;2023-01-09T01:17:56;24.90;;;10.38;;
75649;SDS011;64245;51.282;22.494;2023-01-09T01:20:22;29.83;;;12.68;;
75649;SDS011;64245;51.282;22.494;2023-01-09T01:22:48;29.63;;;11.68;;
75649;SDS011;64245;51.282;22.494;2023-01-09T01:25:14;32.78;;;12.63;;
75649;SDS011;64245;51.282;22.494;2023-01-09T01:27:41;36.40;;;13.07;;
75649;SDS011;64245;51.282;22.494;2023-01-09T01:30:08;30.67;;;12.57;;
75649;SDS011;64245;51.282;22.494;2023-01-09T01:32:38;28.98;;;11.85;;
75649;SDS011;64245;51.282;22.494;2023-01-09T01:35:04;24.58;;;12.02;;
75649;SDS011;64245;51.282;22.494;2023-01-09T01:37:33;26.33;;;11.88;;
75649;SDS011;64245;51.282;22.494;2023-01-09T01:39:59;26.40;;;11.65;;
75649;SDS011;64245;51.282;22.494;2023-01-09T01:42:25;25.35;;;12.52;;
75649;SDS011;64245;51.282;22.494;2023-01-09T01:44:55;28.45;;;11.98;;
75649;SDS011;64245;51.282;22.494;2023-01-09T01:47:37;24.23;;;9.73;;
75649;SDS011;64245;51.282;22.494;2023-01-09T01:50:22;27.05;;;10.93;;
75649;SDS011;64245;51.282;22.494;2023-01-09T01:55:20;19.98;;;9.40;;
75649;SDS011;64245;51.282;22.494;2023-01-09T01:57:47;26.58;;;11.27;;
75649;SDS011;64245;51.282;22.494;2023-01-09T02:00:18;21.23;;;10.57;;
75649;SDS011;64245;51.282;22.494;2023-01-09T02:02:50;23.80;;;10.30;;
75649;SDS011;64245;51.282;22.494;2023-01-09T02:05:15;19.88;;;8.98;;
75649;SDS011;64245;51.282;22.494;2023-01-09T02:07:41;21.73;;;11.07;;
75649;SDS011;64245;51.282;22.494;2023-01-09T02:10:07;24.38;;;11.35;;
75649;SDS011;64245;51.282;22.494;2023-01-09T02:12:33;25.17;;;11.25;;
75649;SDS011;64245;51.282;22.494;2023-01-09T02:15:00;22.67;;;10.50;;
75649;SDS011;64245;51.282;22.494;2023-01-09T02:37:47;24.02;;;10.55;;
75649;SDS011;64245;51.282;22.494;2023-01-09T02:40:20;22.67;;;10.77;;
75649;SDS011;64245;51.282;22.494;2023-01-09T02:42:53;19.58;;;10.25;;
75649;SDS011;64245;51.282;22.494;2023-01-09T02:45:21;21.73;;;10.68;;
75649;SDS011;64245;51.282;22.494;2023-01-09T02:47:47;20.58;;;9.85;;
75649;SDS011;64245;51.282;22.494;2023-01-09T02:50:17;21.67;;;9.98;;
75649;SDS011;64245;51.282;22.494;2023-01-09T02:53:06;20.25;;;10.77;;
75649;SDS011;64245;51.282;22.494;2023-01-09T02:56:05;20.02;;;8.88;;
75649;SDS011;64245;51.282;22.494;2023-01-09T02:59:01;19.98;;;8.65;;
75649;SDS011;64245;51.282;22.494;2023-01-09T03:01:46;21.48;;;10.65;;
75649;SDS011;64245;51.282;22.494;2023-01-09T03:05:14;19.95;;;10.00;;
75649;SDS011;64245;51.282;22.494;2023-01-09T03:07:54;15.23;;;6.70;;
75649;SDS011;64245;51.282;22.494;2023-01-09T03:13:17;25.02;;;11.63;;
75649;SDS011;64245;51.282;22.494;2023-01-09T03:15:46;22.38;;;10.48;;
75649;SDS011;64245;51.282;22.494;2023-01-09T03:18:15;14.52;;;8.05;;
75649;SDS011;64245;51.282;22.494;2023-01-09T03:20:44;22.00;;;10.27;;
75649;SDS011;64245;51.282;22.494;2023-01-09T03:23:11;19.88;;;9.05;;
75649;SDS011;64245;51.282;22.494;2023-01-09T03:25:37;18.98;;;9.52;;
75649;SDS011;64245;51.282;22.494;2023-01-09T03:28:04;16.70;;;8.45;;
75649;SDS011;64245;51.282;22.494;2023-01-09T03:30:32;20.65;;;10.38;;
75649;SDS011;64245;51.282;22.494;2023-01-09T03:32:59;19.13;;;10.00;;
75649;SDS011;64245;51.282;22.494;2023-01-09T03:35:25;18.90;;;9.82;;
75649;SDS011;64245;51.282;22.494;2023-01-09T03:37:51;20.35;;;9.52;;
75649;SDS011;64245;51.282;22.494;2023-01-09T03:40:17;20.42;;;10.10;;
75649;SDS011;64245;51.282;22.494;2023-01-09T03:42:44;19.42;;;9.48;;
75649;SDS011;64245;51.282;22.494;2023-01-09T03:45:10;22.33;;;9.73;;
75649;SDS011;64245;51.282;22.494;2023-01-09T03:47:35;23.25;;;10.52;;
75649;SDS011;64245;51.282;22.494;2023-01-09T03:50:01;22.70;;;10.40;;
75649;SDS011;64245;51.282;22.494;2023-01-09T03:52:27;22.58;;;9.40;;
75649;SDS011;64245;51.282;22.494;2023-01-09T03:54:52;20.15;;;9.82;;
75649;SDS011;64245;51.282;22.494;2023-01-09T03:57:18;18.02;;;8.63;;
75649;SDS011;64245;51.282;22.494;2023-01-09T03:59:44;20.23;;;8.73;;
75649;SDS011;64245;51.282;22.494;2023-01-09T04:02:10;19.55;;;10.20;;
75649;SDS011;64245;51.282;22.494;2023-01-09T04:04:35;18.13;;;9.38;;
75649;SDS011;64245;51.282;22.494;2023-01-09T04:07:01;19.63;;;9.02;;
75649;SDS011;64245;51.282;22.494;2023-01-09T04:09:26;20.98;;;9.32;;
75649;SDS011;64245;51.282;22.494;2023-01-09T04:11:52;20.55;;;8.90;;
75649;SDS011;64245;51.282;22.494;2023-01-09T04:14:18;15.93;;;7.97;;
75649;SDS011;64245;51.282;22.494;2023-01-09T04:16:43;21.90;;;9.52;;
75649;SDS011;64245;51.282;22.494;2023-01-09T04:19:09;22.13;;;10.60;;
75649;SDS011;64245;51.282;22.494;2023-01-09T04:21:34;22.48;;;10.75;;
75649;SDS011;64245;51.282;22.494;2023-01-09T04:24:00;17.40;;;9.88;;
75649;SDS011;64245;51.282;22.494;2023-01-09T04:26:27;22.88;;;9.75;;
75649;SDS011;64245;51.282;22.494;2023-01-09T04:28:53;19.13;;;9.18;;
75649;SDS011;64245;51.282;22.494;2023-01-09T04:31:19;23.17;;;9.82;;
75649;SDS011;64245;51.282;22.494;2023-01-09T04:33:44;20.10;;;9.80;;
75649;SDS011;64245;51.282;22.494;2023-01-09T04:36:10;21.48;;;9.95;;
75649;SDS011;64245;51.282;22.494;2023-01-09T04:38:36;18.65;;;9.00;;
75649;SDS011;64245;51.282;22.494;2023-01-09T04:41:01;20.73;;;9.65;;
75649;SDS011;64245;51.282;22.494;2023-01-09T04:43:27;20.00;;;9.35;;
75649;SDS011;64245;51.282;22.494;2023-01-09T04:45:52;25.13;;;11.20;;
75649;SDS011;64245;51.282;22.494;2023-01-09T04:48:18;20.08;;;8.70;;
75649;SDS011;64245;51.282;22.494;2023-01-09T04:50:44;20.00;;;9.63;;
75649;SDS011;64245;51.282;22.494;2023-01-09T04:53:09;16.52;;;7.60;;
75649;SDS011;64245;51.282;22.494;2023-01-09T04:55:35;23.13;;;10.38;;
75649;SDS011;64245;51.282;22.494;2023-01-09T04:58:00;22.38;;;10.65;;
75649;SDS011;64245;51.282;22.494;2023-01-09T05:00:26;20.05;;;10.45;;
75649;SDS011;64245;51.282;22.494;2023-01-09T05:02:52;23.30;;;10.95;;
75649;SDS011;64245;51.282;22.494;2023-01-09T05:05:17;23.67;;;10.43;;
75649;SDS011;64245;51.282;22.494;2023-01-09T05:07:43;19.27;;;9.68;;
75649;SDS011;64245;51.282;22.494;2023-01-09T05:10:09;19.67;;;8.70;;
75649;SDS011;64245;51.282;22.494;2023-01-09T05:12:35;22.63;;;10.60;;
75649;SDS011;64245;51.282;22.494;2023-01-09T05:15:05;21.65;;;9.73;;
75649;SDS011;64245;51.282;22.494;2023-01-09T05:17:32;21.13;;;9.73;;
75649;SDS011;64245;51.282;22.494;2023-01-09T05:19:58;18.33;;;9.68;;
75649;SDS011;64245;51.282;22.494;2023-01-09T05:22:25;20.55;;;9.40;;
75649;SDS011;64245;51.282;22.494;2023-01-09T05:24:51;21.92;;;9.63;;
75649;SDS011;64245;51.282;22.494;2023-01-09T05:27:17;22.95;;;9.07;;
75649;SDS011;64245;51.282;22.494;2023-01-09T05:29:42;19.55;;;10.07;;
75649;SDS011;64245;51.282;22.494;2023-01-09T05:32:08;20.95;;;9.25;;
75649;SDS011;64245;51.282;22.494;2023-01-09T05:34:34;11.88;;;6.57;;
75649;SDS011;64245;51.282;22.494;2023-01-09T05:36:59;19.38;;;9.68;;
75649;SDS011;64245;51.282;22.494;2023-01-09T05:39:25;19.85;;;9.40;;
75649;SDS011;64245;51.282;22.494;2023-01-09T05:41:50;15.68;;;8.73;;
75649;SDS011;64245;51.282;22.494;2023-01-09T05:44:16;19.50;;;9.60;;
75649;SDS011;64245;51.282;22.494;2023-01-09T05:46:42;18.85;;;9.27;;
75649;SDS011;64245;51.282;22.494;2023-01-09T05:49:08;17.25;;;8.68;;
75649;SDS011;64245;51.282;22.494;2023-01-09T05:51:33;21.38;;;9.30;;
75649;SDS011;64245;51.282;22.494;2023-01-09T05:53:59;16.48;;;8.88;;
75649;SDS011;64245;51.282;22.494;2023-01-09T05:56:26;17.60;;;9.82;;
75649;SDS011;64245;51.282;22.494;2023-01-09T05:58:52;17.50;;;9.40;;
75649;SDS011;64245;51.282;22.494;2023-01-09T06:01:17;17.23;;;8.27;;
75649;SDS011;64245;51.282;22.494;2023-01-09T06:03:43;20.38;;;10.15;;
75649;SDS011;64245;51.282;22.494;2023-01-09T06:06:08;19.67;;;9.10;;
75649;SDS011;64245;51.282;22.494;2023-01-09T06:08:34;17.35;;;8.93;;
75649;SDS011;64245;51.282;22.494;2023-01-09T06:10:59;20.92;;;9.45;;
75649;SDS011;64245;51.282;22.494;2023-01-09T06:13:25;15.50;;;7.97;;
75649;SDS011;64245;51.282;22.494;2023-01-09T06:15:51;16.88;;;9.27;;
75649;SDS011;64245;51.282;22.494;2023-01-09T06:18:16;21.42;;;10.20;;
75649;SDS011;64245;51.282;22.494;2023-01-09T06:20:45;19.95;;;9.73;;
75649;SDS011;64245;51.282;22.494;2023-01-09T06:25:36;16.08;;;8.27;;
75649;SDS011;64245;51.282;22.494;2023-01-09T06:28:02;18.85;;;9.48;;
75649;SDS011;64245;51.282;22.494;2023-01-09T06:30:27;20.08;;;9.38;;
75649;SDS011;64245;51.282;22.494;2023-01-09T06:32:53;23.55;;;10.40;;
75649;SDS011;64245;51.282;22.494;2023-01-09T06:35:19;19.17;;;8.38;;
75649;SDS011;64245;51.282;22.494;2023-01-09T06:37:46;19.98;;;11.10;;
75649;SDS011;64245;51.282;22.494;2023-01-09T06:40:12;23.75;;;10.57;;
75649;SDS011;64245;51.282;22.494;2023-01-09T06:42:41;18.80;;;9.30;;
75649;SDS011;64245;51.282;22.494;2023-01-09T06:45:10;16.30;;;8.25;;
75649;SDS011;64245;51.282;22.494;2023-01-09T06:47:37;18.92;;;9.18;;
75649;SDS011;64245;51.282;22.494;2023-01-09T06:50:03;22.25;;;9.68;;
75649;SDS011;64245;51.282;22.494;2023-01-09T06:52:30;14.90;;;7.50;;
75649;SDS011;64245;51.282;22.494;2023-01-09T06:54:55;19.35;;;8.88;;
75649;SDS011;64245;51.282;22.494;2023-01-09T06:57:21;16.15;;;8.85;;
75649;SDS011;64245;51.282;22.494;2023-01-09T06:59:46;19.75;;;9.13;;
75649;SDS011;64245;51.282;22.494;2023-01-09T07:02:21;20.25;;;9.82;;
75649;SDS011;64245;51.282;22.494;2023-01-09T07:04:47;16.30;;;7.43;;
75649;SDS011;64245;51.282;22.494;2023-01-09T07:07:13;17.25;;;9.43;;
75649;SDS011;64245;51.282;22.494;2023-01-09T07:09:39;16.77;;;7.63;;
75649;SDS011;64245;51.282;22.494;2023-01-09T07:12:05;15.77;;;8.02;;
75649;SDS011;64245;51.282;22.494;2023-01-09T07:14:30;15.90;;;8.52;;
75649;SDS011;64245;51.282;22.494;2023-01-09T07:16:56;21.45;;;9.32;;
75649;SDS011;64245;51.282;22.494;2023-01-09T07:19:22;16.52;;;8.90;;
75649;SDS011;64245;51.282;22.494;2023-01-09T07:21:48;18.65;;;9.48;;
75649;SDS011;64245;51.282;22.494;2023-01-09T07:24:13;15.35;;;8.52;;
75649;SDS011;64245;51.282;22.494;2023-01-09T07:26:39;19.80;;;9.73;;
75649;SDS011;64245;51.282;22.494;2023-01-09T07:29:05;18.17;;;8.88;;
75649;SDS011;64245;51.282;22.494;2023-01-09T07:31:31;19.30;;;9.75;;
75649;SDS011;64245;51.282;22.494;2023-01-09T07:33:56;18.65;;;8.38;;
75649;SDS011;64245;51.282;22.494;2023-01-09T07:36:22;19.83;;;9.95;;
75649;SDS011;64245;51.282;22.494;2023-01-09T07:38:47;17.77;;;8.63;;
75649;SDS011;64245;51.282;22.494;2023-01-09T07:41:13;17.45;;;8.23;;
75649;SDS011;64245;51.282;22.494;2023-01-09T07:43:39;15.95;;;9.93;;
75649;SDS011;64245;51.282;22.494;2023-01-09T07:46:04;15.88;;;8.15;;
75649;SDS011;64245;51.282;22.494;2023-01-09T07:48:30;17.83;;;9.20;;
75649;SDS011;64245;51.282;22.494;2023-01-09T07:50:57;16.98;;;8.30;;
75649;SDS011;64245;51.282;22.494;2023-01-09T07:53:23;15.23;;;8.55;;
75649;SDS011;64245;51.282;22.494;2023-01-09T07:55:48;15.60;;;7.93;;
75649;SDS011;64245;51.282;22.494;2023-01-09T07:58:14;18.63;;;9.13;;
75649;SDS011;64245;51.282;22.494;2023-01-09T08:00:40;14.95;;;8.10;;
75649;SDS011;64245;51.282;22.494;2023-01-09T08:03:05;14.68;;;8.02;;
75649;SDS011;64245;51.282;22.494;2023-01-09T08:05:31;15.88;;;8.65;;
75649;SDS011;64245;51.282;22.494;2023-01-09T08:07:57;15.13;;;8.32;;
75649;SDS011;64245;51.282;22.494;2023-01-09T08:10:22;15.05;;;7.95;;
75649;SDS011;64245;51.282;22.494;2023-01-09T08:12:48;12.88;;;7.25;;
75649;SDS011;64245;51.282;22.494;2023-01-09T08:15:14;16.33;;;8.50;;
75649;SDS011;64245;51.282;22.494;2023-01-09T08:17:41;13.27;;;7.30;;
75649;SDS011;64245;51.282;22.494;2023-01-09T08:20:12;15.30;;;9.15;;
75649;SDS011;64245;51.282;22.494;2023-01-09T08:22:40;16.75;;;8.70;;
75649;SDS011;64245;51.282;22.494;2023-01-09T08:25:06;16.23;;;8.73;;
75649;SDS011;64245;51.282;22.494;2023-01-09T08:27:33;14.13;;;8.20;;
75649;SDS011;64245;51.282;22.494;2023-01-09T08:29:58;15.23;;;8.55;;
75649;SDS011;64245;51.282;22.494;2023-01-09T08:32:24;15.02;;;7.63;;
75649;SDS011;64245;51.282;22.494;2023-01-09T08:34:50;15.07;;;8.02;;
75649;SDS011;64245;51.282;22.494;2023-01-09T08:37:16;11.88;;;5.80;;
75649;SDS011;64245;51.282;22.494;2023-01-09T08:39:42;17.83;;;6.82;;
75649;SDS011;64245;51.282;22.494;2023-01-09T08:42:07;12.13;;;7.10;;
75649;SDS011;64245;51.282;22.494;2023-01-09T08:44:51;13.48;;;7.40;;
75649;SDS011;64245;51.282;22.494;2023-01-09T08:47:36;13.93;;;7.80;;
75649;SDS011;64245;51.282;22.494;2023-01-09T08:50:01;13.43;;;8.13;;
75649;SDS011;64245;51.282;22.494;2023-01-09T08:52:28;15.32;;;8.07;;
75649;SDS011;64245;51.282;22.494;2023-01-09T08:54:55;12.90;;;8.13;;
75649;SDS011;64245;51.282;22.494;2023-01-09T08:57:21;12.05;;;7.47;;
75649;SDS011;64245;51.282;22.494;2023-01-09T08:59:47;14.35;;;7.82;;
75649;SDS011;64245;51.282;22.494;2023-01-09T09:02:13;11.85;;;6.75;;
75649;SDS011;64245;51.282;22.494;2023-01-09T09:04:38;15.40;;;7.78;;
75649;SDS011;64245;51.282;22.494;2023-01-09T09:07:04;11.30;;;7.30;;
75649;SDS011;64245;51.282;22.494;2023-01-09T09:09:30;13.20;;;7.20;;
75649;SDS011;64245;51.282;22.494;2023-01-09T09:11:56;10.65;;;6.53;;
75649;SDS011;64245;51.282;22.494;2023-01-09T09:14:21;15.18;;;8.20;;
75649;SDS011;64245;51.282;22.494;2023-01-09T09:17:06;13.48;;;7.68;;
75649;SDS011;64245;51.282;22.494;2023-01-09T09:19:31;10.50;;;6.78;;
75649;SDS011;64245;51.282;22.494;2023-01-09T09:21:57;10.73;;;6.30;;
75649;SDS011;64245;51.282;22.494;2023-01-09T09:24:23;11.82;;;6.50;;
75649;SDS011;64245;51.282;22.494;2023-01-09T09:26:49;12.77;;;7.57;;
75649;SDS011;64245;51.282;22.494;2023-01-09T09:29:14;11.95;;;5.97;;
75649;SDS011;64245;51.282;22.494;2023-01-09T09:31:40;8.27;;;5.22;;
75649;SDS011;64245;51.282;22.494;2023-01-09T09:34:06;11.20;;;6.72;;
75649;SDS011;64245;51.282;22.494;2023-01-09T09:36:32;11.85;;;6.95;;
75649;SDS011;64245;51.282;22.494;2023-01-09T09:38:58;11.43;;;6.45;;
75649;SDS011;64245;51.282;22.494;2023-01-09T09:41:31;10.88;;;6.63;;
75649;SDS011;64245;51.282;22.494;2023-01-09T09:44:40;11.52;;;6.22;;
75649;SDS011;64245;51.282;22.494;2023-01-09T09:47:23;10.75;;;7.40;;
75649;SDS011;64245;51.282;22.494;2023-01-09T09:52:47;10.48;;;6.90;;
75649;SDS011;64245;51.282;22.494;2023-01-09T09:55:17;12.88;;;6.75;;
75649;SDS011;64245;51.282;22.494;2023-01-09T09:57:45;13.35;;;6.43;;
75649;SDS011;64245;51.282;22.494;2023-01-09T10:00:14;12.02;;;6.90;;
75649;SDS011;64245;51.282;22.494;2023-01-09T10:02:47;9.18;;;5.35;;
75649;SDS011;64245;51.282;22.494;2023-01-09T10:05:59;11.90;;;6.55;;
75649;SDS011;64245;51.282;22.494;2023-01-09T10:08:12;10.13;;;5.75;;
75649;SDS011;64245;51.282;22.494;2023-01-09T10:10:53;9.82;;;5.55;;
75649;SDS011;64245;51.282;22.494;2023-01-09T10:13:21;9.63;;;5.93;;
75649;SDS011;64245;51.282;22.494;2023-01-09T10:16:20;15.20;;;6.95;;
75649;SDS011;64245;51.282;22.494;2023-01-09T10:19:05;13.07;;;7.15;;
75649;SDS011;64245;51.282;22.494;2023-01-09T10:22:00;11.35;;;6.20;;
75649;SDS011;64245;51.282;22.494;2023-01-09T10:30:32;11.07;;;6.18;;
75649;SDS011;64245;51.282;22.494;2023-01-09T10:35:58;14.82;;;6.97;;
75649;SDS011;64245;51.282;22.494;2023-01-09T10:38:33;13.88;;;7.03;;
75649;SDS011;64245;51.282;22.494;2023-01-09T10:41:08;11.88;;;6.72;;
75649;SDS011;64245;51.282;22.494;2023-01-09T10:43:45;13.32;;;7.50;;
75649;SDS011;64245;51.282;22.494;2023-01-09T10:46:36;12.32;;;7.38;;
75649;SDS011;64245;51.282;22.494;2023-01-09T10:49:10;15.75;;;7.25;;
75649;SDS011;64245;51.282;22.494;2023-01-09T10:54:14;12.05;;;7.07;;
75649;SDS011;64245;51.282;22.494;2023-01-09T10:56:44;11.55;;;6.22;;
75649;SDS011;64245;51.282;22.494;2023-01-09T10:59:18;14.25;;;7.15;;
75649;SDS011;64245;51.282;22.494;2023-01-09T11:01:43;12.70;;;6.68;;
75649;SDS011;64245;51.282;22.494;2023-01-09T11:06:45;11.07;;;6.70;;
75649;SDS011;64245;51.282;22.494;2023-01-09T11:09:14;11.48;;;7.20;;
75649;SDS011;64245;51.282;22.494;2023-01-09T11:11:41;12.05;;;7.30;;
75649;SDS011;64245;51.282;22.494;2023-01-09T11:14:15;12.50;;;8.00;;
75649;SDS011;64245;51.282;22.494;2023-01-09T11:16:52;13.23;;;7.22;;
75649;SDS011;64245;51.282;22.494;2023-01-09T11:19:20;12.50;;;7.68;;
75649;SDS011;64245;51.282;22.494;2023-01-09T11:21:46;14.07;;;6.80;;
75649;SDS011;64245;51.282;22.494;2023-01-09T11:26:46;14.93;;;7.75;;
75649;SDS011;64245;51.282;22.494;2023-01-09T11:29:19;12.57;;;7.60;;
75649;SDS011;64245;51.282;22.494;2023-01-09T11:31:59;15.45;;;7.28;;
75649;SDS011;64245;51.282;22.494;2023-01-09T11:34:32;12.13;;;7.85;;
75649;SDS011;64245;51.282;22.494;2023-01-09T11:37:05;14.45;;;7.78;;
75649;SDS011;64245;51.282;22.494;2023-01-09T11:39:32;11.75;;;6.30;;
75649;SDS011;64245;51.282;22.494;2023-01-09T11:42:03;11.93;;;7.35;;
75649;SDS011;64245;51.282;22.494;2023-01-09T11:44:30;13.55;;;8.57;;
75649;SDS011;64245;51.282;22.494;2023-01-09T11:46:57;12.15;;;7.05;;
75649;SDS011;64245;51.282;22.494;2023-01-09T11:49:25;10.20;;;6.32;;
75649;SDS011;64245;51.282;22.494;2023-01-09T11:54:58;13.88;;;7.88;;
75649;SDS011;64245;51.282;22.494;2023-01-09T11:57:28;13.52;;;8.27;;
75649;SDS011;64245;51.282;22.494;2023-01-09T11:59:58;17.73;;;6.22;;
75649;SDS011;64245;51.282;22.494;2023-01-09T12:10:34;13.25;;;7.80;;
75649;SDS011;64245;51.282;22.494;2023-01-09T12:16:06;15.07;;;7.95;;
75649;SDS011;64245;51.282;22.494;2023-01-09T12:19:01;13.95;;;8.05;;
75649;SDS011;64245;51.282;22.494;2023-01-09T12:21:51;15.40;;;7.53;;
75649;SDS011;64245;51.282;22.494;2023-01-09T12:24:49;13.05;;;7.32;;
75649;SDS011;64245;51.282;22.494;2023-01-09T12:38:46;14.52;;;8.52;;
75649;SDS011;64245;51.282;22.494;2023-01-09T12:46:36;17.25;;;8.77;;
75649;SDS011;64245;51.282;22.494;2023-01-09T12:54:30;13.38;;;8.75;;
75649;SDS011;64245;51.282;22.494;2023-01-09T12:57:15;15.98;;;8.43;;
75649;SDS011;64245;51.282;22.494;2023-01-09T12:59:48;14.68;;;8.98;;
75649;SDS011;64245;51.282;22.494;2023-01-09T13:07:22;15.70;;;9.50;;
75649;SDS011;64245;51.282;22.494;2023-01-09T13:10:05;15.32;;;9.35;;
75649;SDS011;64245;51.282;22.494;2023-01-09T13:12:41;11.88;;;7.05;;
75649;SDS011;64245;51.282;22.494;2023-01-09T13:20:43;9.52;;;6.28;;
75649;SDS011;64245;51.282;22.494;2023-01-09T13:23:12;16.15;;;8.68;;
75649;SDS011;64245;51.282;22.494;2023-01-09T13:25:46;12.73;;;7.30;;
75649;SDS011;64245;51.282;22.494;2023-01-09T13:28:23;9.23;;;4.90;;
75649;SDS011;64245;51.282;22.494;2023-01-09T13:33:53;13.30;;;6.88;;
75649;SDS011;64245;51.282;22.494;2023-01-09T13:36:23;12.68;;;6.57;;
75649;SDS011;64245;51.282;22.494;2023-01-09T13:38:52;10.88;;;6.28;;
75649;SDS011;64245;51.282;22.494;2023-01-09T13:41:19;10.63;;;7.03;;
75649;SDS011;64245;51.282;22.494;2023-01-09T13:44:05;12.55;;;7.43;;
75649;SDS011;64245;51.282;22.494;2023-01-09T13:46:46;10.48;;;5.85;;
75649;SDS011;64245;51.282;22.494;2023-01-09T13:52:27;9.10;;;5.65;;
75649;SDS011;64245;51.282;22.494;2023-01-09T13:57:35;11.98;;;6.72;;
75649;SDS011;64245;51.282;22.494;2023-01-09T14:07:49;11.38;;;6.05;;
75649;SDS011;64245;51.282;22.494;2023-01-09T14:10:26;9.52;;;5.80;;
75649;SDS011;64245;51.282;22.494;2023-01-09T14:12:54;10.07;;;6.22;;
75649;SDS011;64245;51.282;22.494;2023-01-09T14:15:26;9.27;;;5.35;;
75649;SDS011;64245;51.282;22.494;2023-01-09T14:20:34;10.32;;;5.40;;
75649;SDS011;64245;51.282;22.494;2023-01-09T14:23:02;9.70;;;4.85;;
75649;SDS011;64245;51.282;22.494;2023-01-09T14:25:31;10.90;;;6.28;;
75649;SDS011;64245;51.282;22.494;2023-01-09T14:35:23;11.45;;;6.25;;
75649;SDS011;64245;51.282;22.494;2023-01-09T14:38:00;9.32;;;6.13;;
75649;SDS011;64245;51.282;22.494;2023-01-09T14:40:29;11.90;;;6.43;;
75649;SDS011;64245;51.282;22.494;2023-01-09T14:42:56;11.60;;;6.53;;
75649;SDS011;64245;51.282;22.494;2023-01-09T14:45:29;13.73;;;6.88;;
75649;SDS011;64245;51.282;22.494;2023-01-09T14:47:57;9.65;;;5.43;;
75649;SDS011;64245;51.282;22.494;2023-01-09T14:53:02;11.25;;;6.15;;
75649;SDS011;64245;51.282;22.494;2023-01-09T14:55:38;12.75;;;6.32;;
75649;SDS011;64245;51.282;22.494;2023-01-09T14:58:22;12.65;;;6.82;;
75649;SDS011;64245;51.282;22.494;2023-01-09T15:00:51;10.48;;;6.70;;
75649;SDS011;64245;51.282;22.494;2023-01-09T15:03:21;9.57;;;5.30;;
75649;SDS011;64245;51.282;22.494;2023-01-09T15:05:48;15.02;;;7.10;;
75649;SDS011;64245;51.282;22.494;2023-01-09T15:08:18;12.95;;;7.68;;
75649;SDS011;64245;51.282;22.494;2023-01-09T15:10:47;12.88;;;7.57;;
75649;SDS011;64245;51.282;22.494;2023-01-09T15:16:02;13.25;;;6.75;;
75649;SDS011;64245;51.282;22.494;2023-01-09T15:18:30;13.80;;;7.38;;
75649;SDS011;64245;51.282;22.494;2023-01-09T15:21:03;13.23;;;7.70;;
75649;SDS011;64245;51.282;22.494;2023-01-09T15:23:29;14.07;;;7.57;;
75649;SDS011;64245;51.282;22.494;2023-01-09T15:25:56;13.52;;;7.70;;
75649;SDS011;64245;51.282;22.494;2023-01-09T15:28:39;13.68;;;7.93;;
75649;SDS011;64245;51.282;22.494;2023-01-09T15:41:46;15.65;;;7.90;;
75649;SDS011;64245;51.282;22.494;2023-01-09T15:44:31;15.68;;;7.95;;
75649;SDS011;64245;51.282;22.494;2023-01-09T15:47:02;15.60;;;8.70;;
75649;SDS011;64245;51.282;22.494;2023-01-09T15:49:30;15.82;;;8.57;;
75649;SDS011;64245;51.282;22.494;2023-01-09T15:51:58;14.43;;;8.88;;
75649;SDS011;64245;51.282;22.494;2023-01-09T15:54:29;15.68;;;8.07;;
75649;SDS011;64245;51.282;22.494;2023-01-09T15:59:47;15.30;;;8.10;;
75649;SDS011;64245;51.282;22.494;2023-01-09T16:02:13;14.55;;;7.55;;
75649;SDS011;64245;51.282;22.494;2023-01-09T16:04:57;15.23;;;7.70;;
75649;SDS011;64245;51.282;22.494;2023-01-09T16:07:23;14.40;;;7.20;;
75649;SDS011;64245;51.282;22.494;2023-01-09T16:09:49;9.18;;;6.47;;
75649;SDS011;64245;51.282;22.494;2023-01-09T16:12:24;13.20;;;7.40;;
75649;SDS011;64245;51.282;22.494;2023-01-09T16:14:53;11.98;;;6.85;;
75649;SDS011;64245;51.282;22.494;2023-01-09T16:17:20;13.80;;;7.53;;
75649;SDS011;64245;51.282;22.494;2023-01-09T16:19:54;13.50;;;7.05;;
75649;SDS011;64245;51.282;22.494;2023-01-09T16:22:28;12.57;;;6.75;;
75649;SDS011;64245;51.282;22.494;2023-01-09T16:24:57;12.57;;;7.30;;
75649;SDS011;64245;51.282;22.494;2023-01-09T16:27:28;12.40;;;7.72;;
75649;SDS011;64245;51.282;22.494;2023-01-09T16:29:58;13.55;;;6.65;;
75649;SDS011;64245;51.282;22.494;2023-01-09T16:32:26;11.48;;;6.22;;
75649;SDS011;64245;51.282;22.494;2023-01-09T16:34:54;10.65;;;6.43;;
75649;SDS011;64245;51.282;22.494;2023-01-09T16:37:22;12.93;;;7.50;;
75649;SDS011;64245;51.282;22.494;2023-01-09T16:42:33;10.93;;;6.25;;
75649;SDS011;64245;51.282;22.494;2023-01-09T16:45:17;10.63;;;6.22;;
75649;SDS011;64245;51.282;22.494;2023-01-09T16:47:44;11.90;;;6.72;;
75649;SDS011;64245;51.282;22.494;2023-01-09T16:50:10;14.35;;;7.55;;
75649;SDS011;64245;51.282;22.494;2023-01-09T16:52:37;11.27;;;6.05;;
75649;SDS011;64245;51.282;22.494;2023-01-09T16:55:03;16.17;;;7.00;;